Main page
Satellite images 10-day forecastsClimateMarine weather Cyclones Lightning AirportsFAQ Newsletter About
Weather : Europe Africa North America South America Asia Australia-Oceania Others
Languages Contact

Dortmund, Germany

Dortmund Airport

latitude: 51-31N, longitude: 007-37E, elevation: 127 m


METAR: EDLW 011950Z VRB02KT CAVOK 17/08 Q1017 RMK ATIS H
TAF: EDLW 011700Z 0118/0218 02004KT CAVOK

Time: 22:12 (20:12 UTC)

Current weather observation

The report was made 22 minutes ago, at 19:50 UTC
Wind 2 kt from variable directions
Temperature 17°C
Humidity 55%
Pressure 1017 hPa
Visibility 10 km or more
no clouds below 1500 m and no cumulonimbus

Change units

Forecast

The report was made 3 hours and 12 minutes ago, at 17:00 UTC
Forecast valid from 01 at 18 UTC to 02 at 18 UTC
Wind 4 kt from the North/Northeast
Visibility 10 km or more
no clouds below 1500 m and no cumulonimbus
The information on this site is subject to a disclaimer
Weather : Europe Africa North America South America Asia Australia-Oceania Others
Satellite images 10-day forecastsClimateMarine weather Cyclones Lightning AirportsFAQ Languages Contact Newsletter About